createdAt,value
2023-01-07T00:04:57.361Z,88.10
2023-01-07T00:10:02.831Z,88.22
2023-01-07T00:15:09.406Z,88.06
2023-01-07T00:20:14.857Z,88.25
2023-01-07T00:25:20.314Z,88.46
2023-01-07T00:30:25.845Z,88.53
2023-01-07T00:35:32.966Z,88.74
2023-01-07T00:40:38.428Z,88.70
2023-01-07T00:45:44.961Z,88.61
2023-01-07T00:50:51.794Z,88.77
2023-01-07T00:55:57.545Z,88.71
2023-01-07T01:01:03.726Z,88.83
2023-01-07T01:06:14.695Z,88.50
2023-01-07T01:11:20.222Z,88.35
2023-01-07T01:16:25.927Z,88.27
2023-01-07T01:21:32.091Z,88.30
2023-01-07T01:26:37.697Z,88.16
2023-01-07T01:31:43.458Z,88.17
2023-01-07T01:36:49.364Z,88.18
2023-01-07T01:41:55.583Z,88.21
2023-01-07T01:47:03.482Z,88.30
2023-01-07T01:52:12.035Z,88.39
2023-01-07T01:57:20.810Z,88.20
2023-01-07T02:02:29.779Z,88.45
2023-01-07T02:07:35.621Z,88.36
2023-01-07T02:13:00.781Z,88.49
2023-01-07T02:18:15.015Z,88.56
2023-01-07T02:23:33.304Z,88.52
2023-01-07T02:28:59.529Z,88.54
2023-01-07T02:34:23.807Z,88.63
2023-01-07T02:39:38.718Z,88.83
2023-01-07T02:44:50.378Z,89.12
2023-01-07T02:49:56.476Z,89.19
2023-01-07T02:55:08.314Z,89.16
2023-01-07T03:00:32.141Z,89.39
2023-01-07T03:05:47.261Z,89.62
2023-01-07T03:11:01.612Z,89.66
2023-01-07T03:16:13.096Z,89.67
2023-01-07T03:21:21.249Z,89.55
2023-01-07T03:26:33.880Z,89.67
2023-01-07T03:31:42.834Z,89.48
2023-01-07T03:36:53.137Z,89.53
2023-01-07T03:42:16.933Z,89.65
2023-01-07T03:47:23.619Z,89.23
2023-01-07T03:52:29.137Z,89.34
2023-01-07T03:57:35.700Z,89.17
2023-01-07T04:02:41.528Z,89.24
2023-01-07T04:07:48.758Z,89.03
2023-01-07T04:12:55.408Z,89.18
2023-01-07T04:18:01.038Z,89.50
2023-01-07T04:23:07.061Z,89.43
2023-01-07T04:28:13.397Z,89.06
2023-01-07T04:33:19.095Z,89.02
2023-01-07T04:38:25.210Z,89.00
2023-01-07T04:43:31.927Z,88.86
2023-01-07T04:48:37.718Z,88.68
2023-01-07T04:53:43.343Z,89.06
2023-01-07T04:58:50.240Z,88.87
2023-01-07T05:03:56.101Z,88.76
2023-01-07T05:09:02.954Z,88.85
2023-01-07T05:14:11.846Z,89.03
2023-01-07T05:19:18.009Z,89.39
2023-01-07T05:24:25.228Z,89.02
2023-01-07T05:29:30.894Z,89.45
2023-01-07T05:34:36.724Z,89.44
2023-01-07T05:39:42.537Z,90.20
2023-01-07T05:44:49.632Z,89.72
2023-01-07T05:49:55.176Z,90.01
2023-01-07T05:55:00.620Z,90.14
2023-01-07T06:00:07.246Z,90.17
2023-01-07T06:05:14.386Z,89.48
2023-01-07T06:10:19.863Z,88.74
2023-01-07T06:15:25.283Z,88.50
2023-01-07T06:20:32.358Z,88.76
2023-01-07T06:25:37.748Z,88.68
2023-01-07T06:30:45.097Z,88.68
2023-01-07T06:35:51.645Z,88.06
2023-01-07T06:40:58.933Z,88.26
2023-01-07T06:46:04.661Z,88.57
2023-01-07T06:51:10.266Z,87.52
2023-01-07T06:56:15.918Z,87.80
2023-01-07T07:01:21.994Z,87.64
2023-01-07T07:06:27.508Z,88.21
2023-01-07T07:11:33.029Z,88.35
2023-01-07T07:16:38.516Z,88.46
2023-01-07T07:21:44.033Z,88.18
2023-01-07T07:26:49.751Z,88.82
2023-01-07T07:31:55.268Z,88.81
2023-01-07T07:37:00.795Z,89.22
2023-01-07T07:42:06.724Z,89.25
2023-01-07T07:47:13.965Z,89.17
2023-01-07T07:52:20.066Z,89.59
2023-01-07T07:57:25.517Z,89.68
2023-01-07T08:02:31.152Z,90.12
2023-01-07T08:07:37.776Z,90.25
2023-01-07T08:12:43.325Z,90.54
2023-01-07T08:17:48.779Z,90.92
2023-01-07T08:22:54.410Z,91.54
2023-01-07T08:28:01.469Z,91.34
2023-01-07T08:33:08.791Z,91.03
2023-01-07T08:38:15.152Z,91.01
2023-01-07T08:43:20.710Z,90.54
2023-01-07T08:48:26.164Z,90.69
2023-01-07T08:53:31.560Z,91.66
2023-01-07T08:58:38.563Z,91.12
2023-01-07T09:03:44.093Z,91.31
2023-01-07T09:08:49.709Z,90.53
2023-01-07T09:13:55.234Z,90.15
2023-01-07T09:19:00.810Z,90.29
2023-01-07T09:24:06.737Z,89.97
2023-01-07T09:29:13.232Z,89.45
2023-01-07T09:34:18.927Z,88.64
2023-01-07T09:39:24.948Z,88.64
2023-01-07T09:44:45.422Z,87.69
2023-01-07T09:49:53.964Z,86.96
2023-01-07T09:55:02.550Z,87.77
2023-01-07T10:00:20.268Z,87.95
2023-01-07T10:05:46.961Z,88.13
2023-01-07T10:10:58.376Z,88.48
2023-01-07T10:16:18.918Z,87.64
2023-01-07T10:21:27.367Z,88.56
2023-01-07T10:26:35.821Z,88.64
2023-01-07T10:31:42.115Z,87.82
2023-01-07T10:37:06.005Z,87.13
2023-01-07T10:42:29.654Z,87.82
2023-01-07T10:47:53.123Z,87.18
2023-01-07T10:53:01.577Z,85.99
2023-01-07T10:58:10.981Z,87.53
2023-01-07T11:03:24.757Z,85.84
2023-01-07T11:08:33.192Z,86.40
2023-01-07T11:13:40.120Z,86.81
2023-01-07T11:18:54.508Z,87.08
2023-01-07T11:24:02.091Z,85.97
2023-01-07T11:29:20.137Z,85.90
2023-01-07T11:34:39.765Z,84.67
2023-01-07T11:39:48.282Z,84.77
2023-01-07T11:45:11.914Z,85.21
2023-01-07T11:50:41.458Z,84.84
2023-01-07T11:56:06.428Z,83.94
2023-01-07T12:01:14.909Z,84.05
2023-01-07T12:06:26.339Z,83.74
2023-01-07T12:11:38.349Z,83.58
2023-01-07T12:16:45.749Z,83.81
2023-01-07T12:22:12.666Z,83.84
2023-01-07T12:27:37.607Z,83.89
2023-01-07T12:32:51.826Z,84.61
2023-01-07T12:38:00.269Z,85.07
2023-01-07T12:43:14.509Z,84.98
2023-01-07T12:48:32.111Z,84.06
2023-01-07T12:53:43.491Z,83.60
2023-01-07T12:59:46.256Z,84.26
2023-01-07T13:05:02.885Z,84.54
2023-01-07T13:10:26.212Z,84.37
2023-01-07T13:15:37.788Z,83.41
2023-01-07T13:21:08.752Z,83.04
2023-01-07T13:26:20.470Z,82.51
2023-01-07T13:31:44.159Z,83.28
2023-01-07T13:37:27.600Z,82.85
2023-01-07T13:42:54.060Z,83.03
2023-01-07T13:48:05.682Z,83.17
2023-01-07T13:53:20.125Z,82.96
2023-01-07T13:58:47.894Z,83.33
2023-01-07T14:04:03.431Z,83.69
2023-01-07T14:09:13.639Z,82.29
2023-01-07T14:14:40.223Z,82.51
2023-01-07T14:20:06.639Z,82.63
2023-01-07T14:25:24.117Z,82.39
2023-01-07T14:30:38.344Z,82.16
2023-01-07T14:35:45.713Z,82.40
2023-01-07T14:41:09.114Z,82.27
2023-01-07T14:46:28.244Z,82.35
2023-01-07T14:51:56.277Z,81.79
2023-01-07T14:57:24.338Z,82.39
2023-01-07T15:02:55.340Z,82.31
2023-01-07T15:08:21.704Z,82.54
2023-01-07T15:13:47.320Z,82.46
2023-01-07T15:18:55.160Z,82.82
2023-01-07T15:24:31.587Z,83.01
2023-01-07T15:29:55.163Z,83.12
2023-01-07T15:35:01.885Z,83.10
2023-01-07T15:40:09.586Z,83.30
2023-01-07T15:45:20.835Z,83.40
2023-01-07T15:50:37.813Z,83.38
2023-01-07T15:56:04.476Z,82.71
2023-01-07T16:01:22.060Z,82.70
2023-01-07T16:06:34.211Z,83.40
2023-01-07T16:11:39.590Z,84.02
2023-01-07T16:16:45.462Z,83.90
2023-01-07T16:22:00.303Z,84.10
2023-01-07T16:27:06.923Z,84.35
2023-01-07T16:32:13.250Z,84.06
2023-01-07T16:37:18.979Z,84.65
2023-01-07T16:42:25.112Z,84.60
2023-01-07T16:47:35.150Z,84.32
2023-01-07T16:52:55.797Z,84.57
2023-01-07T16:58:01.348Z,84.59
2023-01-07T17:03:06.876Z,84.84
2023-01-07T17:08:18.745Z,85.08
2023-01-07T17:13:36.113Z,85.21
2023-01-07T17:18:41.851Z,85.49
2023-01-07T17:23:47.246Z,85.48
2023-01-07T17:28:59.534Z,86.11
2023-01-07T17:34:04.963Z,86.05
2023-01-07T17:39:10.489Z,86.41
2023-01-07T17:44:16.018Z,87.04
2023-01-07T17:49:21.423Z,86.90
2023-01-07T17:54:27.374Z,87.21
2023-01-07T17:59:33.131Z,87.64
2023-01-07T18:04:38.602Z,87.53
2023-01-07T18:09:44.614Z,87.74
2023-01-07T18:14:50.378Z,87.70
2023-01-07T18:19:56.525Z,88.27
2023-01-07T18:25:02.060Z,88.12
2023-01-07T18:30:08.818Z,88.23
2023-01-07T18:35:15.140Z,88.62
2023-01-07T18:40:21.385Z,88.82
2023-01-07T18:45:26.819Z,89.33
2023-01-07T18:50:33.501Z,89.30
2023-01-07T18:55:40.782Z,89.41
2023-01-07T19:00:46.266Z,89.41
2023-01-07T19:05:51.700Z,88.97
2023-01-07T19:10:57.173Z,89.09
2023-01-07T19:16:04.591Z,89.77
2023-01-07T19:21:12.908Z,90.92
2023-01-07T19:26:18.455Z,89.91
2023-01-07T19:31:24.051Z,88.82
2023-01-07T19:36:29.842Z,88.54
2023-01-07T19:41:35.320Z,88.40
2023-01-07T19:46:42.618Z,87.83
2023-01-07T19:51:48.271Z,87.30
2023-01-07T19:56:55.123Z,87.47
2023-01-07T20:02:00.957Z,87.39
2023-01-07T20:07:06.628Z,87.11
2023-01-07T20:12:12.037Z,87.09
2023-01-07T20:17:17.640Z,87.01
2023-01-07T20:22:24.252Z,87.07
2023-01-07T20:27:29.800Z,87.08
2023-01-07T20:32:36.063Z,87.01
2023-01-07T20:37:41.776Z,87.34
2023-01-07T20:42:47.273Z,87.15
2023-01-07T20:47:52.986Z,86.95
2023-01-07T20:52:59.150Z,86.85
2023-01-07T20:58:04.698Z,86.78
2023-01-07T21:03:10.227Z,86.93
2023-01-07T21:08:16.768Z,86.47
2023-01-07T21:13:24.009Z,86.45
2023-01-07T21:18:29.541Z,86.52
2023-01-07T21:23:36.189Z,86.52
2023-01-07T21:28:42.096Z,86.63
2023-01-07T21:33:47.713Z,86.69
2023-01-07T21:38:58.386Z,87.10
2023-01-07T21:44:03.936Z,86.58
2023-01-07T21:49:09.592Z,86.19
2023-01-07T21:54:15.046Z,85.86
2023-01-07T21:59:21.156Z,85.86
2023-01-07T22:04:28.072Z,85.70
2023-01-07T22:09:34.981Z,85.47
2023-01-07T22:14:41.050Z,85.20
2023-01-07T22:19:46.588Z,85.14
2023-01-07T22:24:51.986Z,85.19
2023-01-07T22:29:58.009Z,85.30
2023-01-07T22:35:03.549Z,84.29
2023-01-07T22:40:10.780Z,83.91
2023-01-07T22:45:19.800Z,83.67
2023-01-07T22:50:25.478Z,83.69
2023-01-07T22:55:32.623Z,83.64
2023-01-07T23:00:42.642Z,83.62
2023-01-07T23:05:48.200Z,83.40
2023-01-07T23:10:53.744Z,83.28
2023-01-07T23:16:05.475Z,83.21
2023-01-07T23:21:12.237Z,83.11
2023-01-07T23:26:17.807Z,82.93
2023-01-07T23:31:23.303Z,82.72
2023-01-07T23:36:29.849Z,82.19
2023-01-07T23:41:36.958Z,82.27
2023-01-07T23:46:42.497Z,81.63
2023-01-07T23:51:47.937Z,81.80
2023-01-07T23:56:53.460Z,81.72
